LPAZ/SMA METAR and TAF weather

Enter ICAO airport designator
Station Type Date Time Source
LPAZ METAR 2022/06/26 07:30 UTC NOAA

LPAZ 260730Z 01010KT 9999 FEW019 BKN044 17/14 Q1025


Station Type Date Time Source
LPAZ Decoded METAR 2022/06/26 07:30 UTC NOAA

Santa Maria Acores , Portugal (LPAZ) 36-58N 025-10W 100M
Jun 26, 2022 - 03:30 AM EDT / 2022.06.26 0730 UTC
Wind: from the N (010 degrees) at 12 MPH (10 KT):0
Visibility: greater than 7 mile(s):0
Sky conditions: mostly cloudy
Temperature: 62 F (17 C)
Dew Point: 57 F (14 C)
Relative Humidity: 82%
Pressure (altimeter): 30.27 in. Hg (1025 hPa)
ob: LPAZ 260730Z 01010KT 9999 FEW019 BKN044 17/14 Q1025
cycle: 7

Station Type Date Time Source
LPAZ TAF 2022/06/26 06:18 UTC NOAA

TAF TAF LPAZ 260500Z 2606/2712 01012KT 9999 FEW018 BKN045
TEMPO 2606/2706 SCT020
BECMG 2700/2702 VRB05KT
BECMG 2706/2709 SCT012 BKN020 PROB30
TEMPO 2709/2712 5000 -RADZ BR SCT006 BKN012

Example: see airport list